sensor_id;sensor_type;location;lat;lon;timestamp;P1;durP1;ratioP1;P2;durP2;ratioP2
66175;SDS011;52977;44.816;20.538;2023-11-19T00:00:57;10.45;;;4.97;;
66175;SDS011;52977;44.816;20.538;2023-11-19T00:03:23;10.25;;;4.13;;
66175;SDS011;52977;44.816;20.538;2023-11-19T00:05:50;8.82;;;4.40;;
66175;SDS011;52977;44.816;20.538;2023-11-19T00:08:16;11.05;;;5.07;;
66175;SDS011;52977;44.816;20.538;2023-11-19T00:10:42;10.30;;;4.40;;
66175;SDS011;52977;44.816;20.538;2023-11-19T00:13:08;13.20;;;4.53;;
66175;SDS011;52977;44.816;20.538;2023-11-19T00:15:36;10.70;;;4.63;;
66175;SDS011;52977;44.816;20.538;2023-11-19T00:18:02;11.25;;;4.70;;
66175;SDS011;52977;44.816;20.538;2023-11-19T00:20:31;9.68;;;4.65;;
66175;SDS011;52977;44.816;20.538;2023-11-19T00:22:57;8.88;;;4.95;;
66175;SDS011;52977;44.816;20.538;2023-11-19T00:25:22;9.40;;;4.10;;
66175;SDS011;52977;44.816;20.538;2023-11-19T00:27:48;8.35;;;4.22;;
66175;SDS011;52977;44.816;20.538;2023-11-19T00:30:16;9.23;;;4.63;;
66175;SDS011;52977;44.816;20.538;2023-11-19T00:32:42;10.32;;;4.72;;
66175;SDS011;52977;44.816;20.538;2023-11-19T00:35:08;11.75;;;4.78;;
66175;SDS011;52977;44.816;20.538;2023-11-19T00:37:40;10.98;;;5.30;;
66175;SDS011;52977;44.816;20.538;2023-11-19T00:40:08;11.45;;;4.88;;
66175;SDS011;52977;44.816;20.538;2023-11-19T00:42:36;12.68;;;5.60;;
66175;SDS011;52977;44.816;20.538;2023-11-19T00:45:04;12.40;;;6.13;;
66175;SDS011;52977;44.816;20.538;2023-11-19T00:47:35;20.67;;;7.57;;
66175;SDS011;52977;44.816;20.538;2023-11-19T00:50:02;18.98;;;7.47;;
66175;SDS011;52977;44.816;20.538;2023-11-19T00:52:29;21.08;;;7.00;;
66175;SDS011;52977;44.816;20.538;2023-11-19T00:54:55;20.83;;;8.40;;
66175;SDS011;52977;44.816;20.538;2023-11-19T00:57:22;20.77;;;7.80;;
66175;SDS011;52977;44.816;20.538;2023-11-19T00:59:49;15.70;;;7.22;;
66175;SDS011;52977;44.816;20.538;2023-11-19T01:02:15;18.73;;;7.85;;
66175;SDS011;52977;44.816;20.538;2023-11-19T01:04:42;17.50;;;6.90;;
66175;SDS011;52977;44.816;20.538;2023-11-19T01:07:08;11.98;;;5.75;;
66175;SDS011;52977;44.816;20.538;2023-11-19T01:09:38;11.70;;;4.97;;
66175;SDS011;52977;44.816;20.538;2023-11-19T01:12:07;11.70;;;5.07;;
66175;SDS011;52977;44.816;20.538;2023-11-19T01:14:34;11.77;;;5.22;;
66175;SDS011;52977;44.816;20.538;2023-11-19T01:17:01;12.15;;;5.22;;
66175;SDS011;52977;44.816;20.538;2023-11-19T01:19:27;15.77;;;5.57;;
66175;SDS011;52977;44.816;20.538;2023-11-19T01:21:55;10.63;;;4.93;;
66175;SDS011;52977;44.816;20.538;2023-11-19T01:24:22;10.18;;;5.13;;
66175;SDS011;52977;44.816;20.538;2023-11-19T01:26:48;11.88;;;5.18;;
66175;SDS011;52977;44.816;20.538;2023-11-19T01:29:15;10.30;;;5.22;;
66175;SDS011;52977;44.816;20.538;2023-11-19T01:31:45;12.77;;;5.80;;
66175;SDS011;52977;44.816;20.538;2023-11-19T01:34:18;12.23;;;5.40;;
66175;SDS011;52977;44.816;20.538;2023-11-19T01:36:44;11.02;;;5.07;;
66175;SDS011;52977;44.816;20.538;2023-11-19T01:39:12;11.57;;;4.95;;
66175;SDS011;52977;44.816;20.538;2023-11-19T01:41:38;10.35;;;4.50;;
66175;SDS011;52977;44.816;20.538;2023-11-19T01:44:07;11.85;;;4.80;;
66175;SDS011;52977;44.816;20.538;2023-11-19T01:46:34;8.32;;;4.40;;
66175;SDS011;52977;44.816;20.538;2023-11-19T01:49:02;11.48;;;5.22;;
66175;SDS011;52977;44.816;20.538;2023-11-19T01:51:29;9.75;;;4.75;;
66175;SDS011;52977;44.816;20.538;2023-11-19T01:53:56;11.02;;;4.65;;
66175;SDS011;52977;44.816;20.538;2023-11-19T01:56:24;11.60;;;4.88;;
66175;SDS011;52977;44.816;20.538;2023-11-19T01:58:53;11.82;;;4.97;;
66175;SDS011;52977;44.816;20.538;2023-11-19T02:01:21;11.55;;;5.07;;
66175;SDS011;52977;44.816;20.538;2023-11-19T02:03:48;11.10;;;5.10;;
66175;SDS011;52977;44.816;20.538;2023-11-19T02:06:14;9.23;;;5.00;;
66175;SDS011;52977;44.816;20.538;2023-11-19T02:08:41;10.98;;;4.88;;
66175;SDS011;52977;44.816;20.538;2023-11-19T02:11:07;14.82;;;5.15;;
66175;SDS011;52977;44.816;20.538;2023-11-19T02:13:34;9.63;;;4.75;;
66175;SDS011;52977;44.816;20.538;2023-11-19T02:16:03;11.00;;;5.45;;
66175;SDS011;52977;44.816;20.538;2023-11-19T02:18:30;12.05;;;5.25;;
66175;SDS011;52977;44.816;20.538;2023-11-19T02:20:57;11.90;;;4.97;;
66175;SDS011;52977;44.816;20.538;2023-11-19T02:23:25;11.15;;;5.05;;
66175;SDS011;52977;44.816;20.538;2023-11-19T02:28:28;11.43;;;4.93;;
66175;SDS011;52977;44.816;20.538;2023-11-19T02:30:54;9.63;;;4.80;;
66175;SDS011;52977;44.816;20.538;2023-11-19T02:33:20;10.77;;;5.07;;
66175;SDS011;52977;44.816;20.538;2023-11-19T02:35:47;11.10;;;4.82;;
66175;SDS011;52977;44.816;20.538;2023-11-19T02:38:13;10.70;;;4.45;;
66175;SDS011;52977;44.816;20.538;2023-11-19T02:40:39;11.02;;;5.22;;
66175;SDS011;52977;44.816;20.538;2023-11-19T02:43:06;10.63;;;4.93;;
66175;SDS011;52977;44.816;20.538;2023-11-19T02:45:32;11.90;;;4.75;;
66175;SDS011;52977;44.816;20.538;2023-11-19T02:47:58;10.40;;;5.03;;
66175;SDS011;52977;44.816;20.538;2023-11-19T02:50:27;9.52;;;4.63;;
66175;SDS011;52977;44.816;20.538;2023-11-19T02:52:55;12.02;;;5.30;;
66175;SDS011;52977;44.816;20.538;2023-11-19T02:55:22;10.82;;;5.07;;
66175;SDS011;52977;44.816;20.538;2023-11-19T02:57:50;9.30;;;4.70;;
66175;SDS011;52977;44.816;20.538;2023-11-19T03:00:20;10.52;;;4.70;;
66175;SDS011;52977;44.816;20.538;2023-11-19T03:02:51;9.07;;;4.72;;
66175;SDS011;52977;44.816;20.538;2023-11-19T03:05:35;9.77;;;4.60;;
66175;SDS011;52977;44.816;20.538;2023-11-19T03:08:00;11.20;;;4.57;;
66175;SDS011;52977;44.816;20.538;2023-11-19T03:10:27;10.50;;;4.13;;
66175;SDS011;52977;44.816;20.538;2023-11-19T03:12:54;10.40;;;4.72;;
66175;SDS011;52977;44.816;20.538;2023-11-19T03:15:22;8.20;;;4.00;;
66175;SDS011;52977;44.816;20.538;2023-11-19T03:17:49;9.80;;;4.60;;
66175;SDS011;52977;44.816;20.538;2023-11-19T03:20:15;9.77;;;4.30;;
66175;SDS011;52977;44.816;20.538;2023-11-19T03:22:43;8.27;;;4.20;;
66175;SDS011;52977;44.816;20.538;2023-11-19T03:25:28;9.32;;;4.40;;
66175;SDS011;52977;44.816;20.538;2023-11-19T03:28:02;7.80;;;4.47;;
66175;SDS011;52977;44.816;20.538;2023-11-19T03:30:29;10.85;;;4.20;;
66175;SDS011;52977;44.816;20.538;2023-11-19T03:32:56;8.18;;;4.07;;
66175;SDS011;52977;44.816;20.538;2023-11-19T03:35:23;11.00;;;4.80;;
66175;SDS011;52977;44.816;20.538;2023-11-19T03:37:49;10.27;;;5.03;;
66175;SDS011;52977;44.816;20.538;2023-11-19T03:40:17;8.40;;;4.25;;
66175;SDS011;52977;44.816;20.538;2023-11-19T03:42:45;10.98;;;4.57;;
66175;SDS011;52977;44.816;20.538;2023-11-19T03:45:12;8.15;;;4.35;;
66175;SDS011;52977;44.816;20.538;2023-11-19T03:47:38;9.95;;;4.65;;
66175;SDS011;52977;44.816;20.538;2023-11-19T03:50:05;7.75;;;4.15;;
66175;SDS011;52977;44.816;20.538;2023-11-19T03:52:33;8.85;;;4.60;;
66175;SDS011;52977;44.816;20.538;2023-11-19T03:54:59;8.73;;;3.97;;
66175;SDS011;52977;44.816;20.538;2023-11-19T03:57:26;9.32;;;4.20;;
66175;SDS011;52977;44.816;20.538;2023-11-19T03:59:53;9.88;;;4.05;;
66175;SDS011;52977;44.816;20.538;2023-11-19T04:02:20;13.50;;;4.82;;
66175;SDS011;52977;44.816;20.538;2023-11-19T04:04:46;7.18;;;4.18;;
66175;SDS011;52977;44.816;20.538;2023-11-19T04:07:14;7.63;;;3.92;;
66175;SDS011;52977;44.816;20.538;2023-11-19T04:09:40;8.00;;;4.00;;
66175;SDS011;52977;44.816;20.538;2023-11-19T04:12:06;8.15;;;4.25;;
66175;SDS011;52977;44.816;20.538;2023-11-19T04:14:32;11.52;;;4.40;;
66175;SDS011;52977;44.816;20.538;2023-11-19T04:16:58;7.05;;;4.03;;
66175;SDS011;52977;44.816;20.538;2023-11-19T04:19:23;10.10;;;4.47;;
66175;SDS011;52977;44.816;20.538;2023-11-19T04:21:49;9.73;;;4.80;;
66175;SDS011;52977;44.816;20.538;2023-11-19T04:24:15;11.48;;;4.97;;
66175;SDS011;52977;44.816;20.538;2023-11-19T04:26:41;10.70;;;4.97;;
66175;SDS011;52977;44.816;20.538;2023-11-19T04:29:11;13.10;;;5.47;;
66175;SDS011;52977;44.816;20.538;2023-11-19T04:31:40;11.98;;;5.25;;
66175;SDS011;52977;44.816;20.538;2023-11-19T04:34:06;10.82;;;5.40;;
66175;SDS011;52977;44.816;20.538;2023-11-19T04:36:33;16.05;;;5.47;;
66175;SDS011;52977;44.816;20.538;2023-11-19T04:39:00;11.85;;;5.07;;
66175;SDS011;52977;44.816;20.538;2023-11-19T04:41:26;11.45;;;5.10;;
66175;SDS011;52977;44.816;20.538;2023-11-19T04:43:53;14.35;;;5.30;;
66175;SDS011;52977;44.816;20.538;2023-11-19T04:46:20;10.65;;;4.80;;
66175;SDS011;52977;44.816;20.538;2023-11-19T04:48:46;12.18;;;4.85;;
66175;SDS011;52977;44.816;20.538;2023-11-19T04:51:13;9.57;;;5.03;;
66175;SDS011;52977;44.816;20.538;2023-11-19T04:53:39;9.32;;;4.95;;
66175;SDS011;52977;44.816;20.538;2023-11-19T04:56:09;9.15;;;4.18;;
66175;SDS011;52977;44.816;20.538;2023-11-19T04:58:39;10.68;;;5.25;;
66175;SDS011;52977;44.816;20.538;2023-11-19T05:01:05;10.95;;;5.10;;
66175;SDS011;52977;44.816;20.538;2023-11-19T05:03:31;9.75;;;5.03;;
66175;SDS011;52977;44.816;20.538;2023-11-19T05:05:58;9.68;;;4.72;;
66175;SDS011;52977;44.816;20.538;2023-11-19T05:08:25;9.68;;;4.28;;
66175;SDS011;52977;44.816;20.538;2023-11-19T05:10:51;12.50;;;5.15;;
66175;SDS011;52977;44.816;20.538;2023-11-19T05:13:17;9.25;;;4.47;;
66175;SDS011;52977;44.816;20.538;2023-11-19T05:15:43;9.77;;;4.38;;
66175;SDS011;52977;44.816;20.538;2023-11-19T05:18:10;7.72;;;4.45;;
66175;SDS011;52977;44.816;20.538;2023-11-19T05:20:36;9.32;;;4.70;;
66175;SDS011;52977;44.816;20.538;2023-11-19T05:23:02;12.48;;;5.00;;
66175;SDS011;52977;44.816;20.538;2023-11-19T05:25:28;12.00;;;4.82;;
66175;SDS011;52977;44.816;20.538;2023-11-19T05:27:55;11.55;;;4.63;;
66175;SDS011;52977;44.816;20.538;2023-11-19T05:30:22;13.65;;;5.72;;
66175;SDS011;52977;44.816;20.538;2023-11-19T05:32:48;10.27;;;4.90;;
66175;SDS011;52977;44.816;20.538;2023-11-19T05:35:14;12.25;;;5.15;;
66175;SDS011;52977;44.816;20.538;2023-11-19T05:37:41;11.60;;;5.88;;
66175;SDS011;52977;44.816;20.538;2023-11-19T05:40:07;15.20;;;5.78;;
66175;SDS011;52977;44.816;20.538;2023-11-19T05:42:40;14.90;;;6.05;;
66175;SDS011;52977;44.816;20.538;2023-11-19T05:45:07;14.48;;;6.28;;
66175;SDS011;52977;44.816;20.538;2023-11-19T05:47:37;13.55;;;6.50;;
66175;SDS011;52977;44.816;20.538;2023-11-19T05:50:03;13.00;;;5.93;;
66175;SDS011;52977;44.816;20.538;2023-11-19T05:52:31;14.20;;;5.72;;
66175;SDS011;52977;44.816;20.538;2023-11-19T05:55:01;14.15;;;7.18;;
66175;SDS011;52977;44.816;20.538;2023-11-19T05:57:31;20.50;;;8.80;;
66175;SDS011;52977;44.816;20.538;2023-11-19T05:59:56;18.20;;;8.60;;
66175;SDS011;52977;44.816;20.538;2023-11-19T06:02:24;17.05;;;7.43;;
66175;SDS011;52977;44.816;20.538;2023-11-19T06:04:49;17.00;;;7.93;;
66175;SDS011;52977;44.816;20.538;2023-11-19T06:07:15;15.52;;;7.28;;
66175;SDS011;52977;44.816;20.538;2023-11-19T06:09:40;17.83;;;7.00;;
66175;SDS011;52977;44.816;20.538;2023-11-19T06:12:06;15.73;;;7.40;;
66175;SDS011;52977;44.816;20.538;2023-11-19T06:14:32;13.07;;;6.70;;
66175;SDS011;52977;44.816;20.538;2023-11-19T06:16:58;13.75;;;7.15;;
66175;SDS011;52977;44.816;20.538;2023-11-19T06:19:24;13.40;;;7.40;;
66175;SDS011;52977;44.816;20.538;2023-11-19T06:21:53;14.18;;;7.82;;
66175;SDS011;52977;44.816;20.538;2023-11-19T06:24:19;16.10;;;6.43;;
66175;SDS011;52977;44.816;20.538;2023-11-19T06:26:44;12.50;;;6.38;;
66175;SDS011;52977;44.816;20.538;2023-11-19T06:29:10;13.60;;;6.82;;
66175;SDS011;52977;44.816;20.538;2023-11-19T06:31:36;13.68;;;6.68;;
66175;SDS011;52977;44.816;20.538;2023-11-19T06:34:02;18.73;;;7.75;;
66175;SDS011;52977;44.816;20.538;2023-11-19T06:36:28;17.08;;;7.65;;
66175;SDS011;52977;44.816;20.538;2023-11-19T06:38:54;16.02;;;7.00;;
66175;SDS011;52977;44.816;20.538;2023-11-19T06:41:20;16.15;;;6.93;;
66175;SDS011;52977;44.816;20.538;2023-11-19T06:43:46;15.38;;;7.47;;
66175;SDS011;52977;44.816;20.538;2023-11-19T06:46:18;13.90;;;6.65;;
66175;SDS011;52977;44.816;20.538;2023-11-19T06:48:44;17.15;;;7.20;;
66175;SDS011;52977;44.816;20.538;2023-11-19T06:51:10;16.45;;;6.82;;
66175;SDS011;52977;44.816;20.538;2023-11-19T06:53:36;17.02;;;7.20;;
66175;SDS011;52977;44.816;20.538;2023-11-19T06:56:02;14.52;;;6.97;;
66175;SDS011;52977;44.816;20.538;2023-11-19T06:58:40;15.57;;;7.05;;
66175;SDS011;52977;44.816;20.538;2023-11-19T07:01:06;15.05;;;7.75;;
66175;SDS011;52977;44.816;20.538;2023-11-19T07:03:34;18.77;;;7.95;;
66175;SDS011;52977;44.816;20.538;2023-11-19T07:06:00;20.50;;;7.82;;
66175;SDS011;52977;44.816;20.538;2023-11-19T07:08:25;20.10;;;7.63;;
66175;SDS011;52977;44.816;20.538;2023-11-19T07:10:52;19.58;;;8.15;;
66175;SDS011;52977;44.816;20.538;2023-11-19T07:13:18;15.93;;;7.75;;
66175;SDS011;52977;44.816;20.538;2023-11-19T07:15:44;14.20;;;6.75;;
66175;SDS011;52977;44.816;20.538;2023-11-19T07:18:10;13.32;;;6.20;;
66175;SDS011;52977;44.816;20.538;2023-11-19T07:20:37;15.32;;;6.68;;
66175;SDS011;52977;44.816;20.538;2023-11-19T07:23:03;15.43;;;7.78;;
66175;SDS011;52977;44.816;20.538;2023-11-19T07:25:29;12.65;;;5.88;;
66175;SDS011;52977;44.816;20.538;2023-11-19T07:27:55;13.25;;;6.70;;
66175;SDS011;52977;44.816;20.538;2023-11-19T07:30:21;11.65;;;5.72;;
66175;SDS011;52977;44.816;20.538;2023-11-19T07:32:47;11.00;;;6.07;;
66175;SDS011;52977;44.816;20.538;2023-11-19T07:35:13;11.70;;;5.95;;
66175;SDS011;52977;44.816;20.538;2023-11-19T07:37:41;16.45;;;6.50;;
66175;SDS011;52977;44.816;20.538;2023-11-19T07:40:07;12.68;;;5.90;;
66175;SDS011;52977;44.816;20.538;2023-11-19T07:42:33;12.07;;;6.18;;
66175;SDS011;52977;44.816;20.538;2023-11-19T07:44:59;12.38;;;6.10;;
66175;SDS011;52977;44.816;20.538;2023-11-19T07:47:24;14.27;;;6.40;;
66175;SDS011;52977;44.816;20.538;2023-11-19T07:49:51;12.90;;;6.45;;
66175;SDS011;52977;44.816;20.538;2023-11-19T07:52:16;14.07;;;6.53;;
66175;SDS011;52977;44.816;20.538;2023-11-19T07:54:43;11.80;;;6.20;;
66175;SDS011;52977;44.816;20.538;2023-11-19T07:57:09;11.93;;;5.88;;
66175;SDS011;52977;44.816;20.538;2023-11-19T07:59:35;13.75;;;5.57;;
66175;SDS011;52977;44.816;20.538;2023-11-19T08:02:01;13.73;;;6.10;;
66175;SDS011;52977;44.816;20.538;2023-11-19T08:04:27;15.48;;;6.18;;
66175;SDS011;52977;44.816;20.538;2023-11-19T08:06:52;11.65;;;5.93;;
66175;SDS011;52977;44.816;20.538;2023-11-19T08:09:18;12.98;;;5.70;;
66175;SDS011;52977;44.816;20.538;2023-11-19T08:11:44;14.27;;;5.95;;
66175;SDS011;52977;44.816;20.538;2023-11-19T08:14:11;11.38;;;5.72;;
66175;SDS011;52977;44.816;20.538;2023-11-19T08:16:38;14.68;;;5.88;;
66175;SDS011;52977;44.816;20.538;2023-11-19T08:19:05;11.23;;;5.43;;
66175;SDS011;52977;44.816;20.538;2023-11-19T08:21:31;12.63;;;6.35;;
66175;SDS011;52977;44.816;20.538;2023-11-19T08:23:57;12.30;;;6.53;;
66175;SDS011;52977;44.816;20.538;2023-11-19T08:26:23;16.25;;;6.72;;
66175;SDS011;52977;44.816;20.538;2023-11-19T08:28:49;12.13;;;5.63;;
66175;SDS011;52977;44.816;20.538;2023-11-19T08:31:17;11.45;;;6.00;;
66175;SDS011;52977;44.816;20.538;2023-11-19T08:33:44;14.80;;;5.97;;
66175;SDS011;52977;44.816;20.538;2023-11-19T08:36:15;13.38;;;6.03;;
66175;SDS011;52977;44.816;20.538;2023-11-19T08:38:42;11.27;;;5.50;;
66175;SDS011;52977;44.816;20.538;2023-11-19T08:41:09;11.15;;;5.82;;
66175;SDS011;52977;44.816;20.538;2023-11-19T08:43:36;13.88;;;5.72;;
66175;SDS011;52977;44.816;20.538;2023-11-19T08:46:03;14.55;;;6.50;;
66175;SDS011;52977;44.816;20.538;2023-11-19T08:48:29;12.85;;;6.00;;
66175;SDS011;52977;44.816;20.538;2023-11-19T08:50:56;14.88;;;7.10;;
66175;SDS011;52977;44.816;20.538;2023-11-19T08:53:22;10.93;;;5.88;;
66175;SDS011;52977;44.816;20.538;2023-11-19T08:55:48;10.52;;;5.30;;
66175;SDS011;52977;44.816;20.538;2023-11-19T08:58:15;10.40;;;4.95;;
66175;SDS011;52977;44.816;20.538;2023-11-19T09:00:41;9.55;;;4.50;;
66175;SDS011;52977;44.816;20.538;2023-11-19T09:03:07;9.13;;;4.93;;
66175;SDS011;52977;44.816;20.538;2023-11-19T09:05:35;8.57;;;4.50;;
66175;SDS011;52977;44.816;20.538;2023-11-19T09:08:04;7.18;;;4.38;;
66175;SDS011;52977;44.816;20.538;2023-11-19T09:10:31;10.27;;;5.22;;
66175;SDS011;52977;44.816;20.538;2023-11-19T09:12:57;9.20;;;4.70;;
66175;SDS011;52977;44.816;20.538;2023-11-19T09:15:24;11.85;;;4.85;;
66175;SDS011;52977;44.816;20.538;2023-11-19T09:17:50;10.40;;;5.30;;
66175;SDS011;52977;44.816;20.538;2023-11-19T09:20:16;11.52;;;5.50;;
66175;SDS011;52977;44.816;20.538;2023-11-19T09:22:42;8.02;;;4.60;;
66175;SDS011;52977;44.816;20.538;2023-11-19T09:25:08;9.70;;;4.50;;
66175;SDS011;52977;44.816;20.538;2023-11-19T09:27:35;10.40;;;4.05;;
66175;SDS011;52977;44.816;20.538;2023-11-19T09:30:01;9.23;;;4.63;;
66175;SDS011;52977;44.816;20.538;2023-11-19T09:32:29;10.85;;;4.88;;
66175;SDS011;52977;44.816;20.538;2023-11-19T09:34:56;10.60;;;5.78;;
66175;SDS011;52977;44.816;20.538;2023-11-19T09:37:23;11.73;;;5.25;;
66175;SDS011;52977;44.816;20.538;2023-11-19T09:39:49;11.65;;;5.45;;
66175;SDS011;52977;44.816;20.538;2023-11-19T09:42:15;9.75;;;4.80;;
66175;SDS011;52977;44.816;20.538;2023-11-19T09:44:43;9.38;;;4.50;;
66175;SDS011;52977;44.816;20.538;2023-11-19T09:47:12;14.57;;;5.72;;
66175;SDS011;52977;44.816;20.538;2023-11-19T09:49:40;9.90;;;4.70;;
66175;SDS011;52977;44.816;20.538;2023-11-19T09:52:07;9.15;;;4.82;;
66175;SDS011;52977;44.816;20.538;2023-11-19T09:54:33;10.25;;;5.28;;
66175;SDS011;52977;44.816;20.538;2023-11-19T09:57:00;9.98;;;4.60;;
66175;SDS011;52977;44.816;20.538;2023-11-19T09:59:31;10.52;;;4.75;;
66175;SDS011;52977;44.816;20.538;2023-11-19T10:01:58;12.50;;;5.45;;
66175;SDS011;52977;44.816;20.538;2023-11-19T10:04:29;10.77;;;5.00;;
66175;SDS011;52977;44.816;20.538;2023-11-19T10:06:58;9.43;;;4.70;;
66175;SDS011;52977;44.816;20.538;2023-11-19T10:09:25;10.55;;;5.07;;
66175;SDS011;52977;44.816;20.538;2023-11-19T10:11:51;9.93;;;4.53;;
66175;SDS011;52977;44.816;20.538;2023-11-19T10:14:19;13.43;;;4.80;;
66175;SDS011;52977;44.816;20.538;2023-11-19T10:16:48;8.07;;;3.85;;
66175;SDS011;52977;44.816;20.538;2023-11-19T10:19:18;7.63;;;4.28;;
66175;SDS011;52977;44.816;20.538;2023-11-19T10:22:05;7.78;;;4.05;;
66175;SDS011;52977;44.816;20.538;2023-11-19T10:24:32;13.02;;;4.80;;
66175;SDS011;52977;44.816;20.538;2023-11-19T10:27:06;7.63;;;3.72;;
66175;SDS011;52977;44.816;20.538;2023-11-19T10:29:37;8.32;;;4.10;;
66175;SDS011;52977;44.816;20.538;2023-11-19T10:32:06;10.18;;;4.57;;
66175;SDS011;52977;44.816;20.538;2023-11-19T10:34:33;9.98;;;4.47;;
66175;SDS011;52977;44.816;20.538;2023-11-19T10:36:59;7.55;;;3.97;;
66175;SDS011;52977;44.816;20.538;2023-11-19T10:39:54;8.32;;;3.60;;
66175;SDS011;52977;44.816;20.538;2023-11-19T10:42:20;9.32;;;4.13;;
66175;SDS011;52977;44.816;20.538;2023-11-19T10:44:47;8.05;;;3.80;;
66175;SDS011;52977;44.816;20.538;2023-11-19T10:47:14;6.82;;;3.78;;
66175;SDS011;52977;44.816;20.538;2023-11-19T10:49:44;8.35;;;4.00;;
66175;SDS011;52977;44.816;20.538;2023-11-19T10:52:11;8.15;;;4.53;;
66175;SDS011;52977;44.816;20.538;2023-11-19T10:55:04;9.27;;;4.10;;
66175;SDS011;52977;44.816;20.538;2023-11-19T10:57:34;15.07;;;4.38;;
66175;SDS011;52977;44.816;20.538;2023-11-19T11:00:02;7.75;;;3.65;;
66175;SDS011;52977;44.816;20.538;2023-11-19T11:02:35;8.85;;;4.03;;
66175;SDS011;52977;44.816;20.538;2023-11-19T11:05:08;13.95;;;5.05;;
66175;SDS011;52977;44.816;20.538;2023-11-19T11:07:35;7.80;;;3.47;;
66175;SDS011;52977;44.816;20.538;2023-11-19T11:10:03;8.20;;;3.58;;
66175;SDS011;52977;44.816;20.538;2023-11-19T11:12:34;7.20;;;3.40;;
66175;SDS011;52977;44.816;20.538;2023-11-19T11:15:03;9.68;;;4.25;;
66175;SDS011;52977;44.816;20.538;2023-11-19T11:17:31;7.90;;;3.75;;
66175;SDS011;52977;44.816;20.538;2023-11-19T11:19:59;9.10;;;4.15;;
66175;SDS011;52977;44.816;20.538;2023-11-19T11:22:25;8.30;;;4.30;;
66175;SDS011;52977;44.816;20.538;2023-11-19T11:31:12;8.85;;;4.00;;
66175;SDS011;52977;44.816;20.538;2023-11-19T11:39:25;7.82;;;4.15;;
66175;SDS011;52977;44.816;20.538;2023-11-19T11:45:01;8.13;;;3.50;;
66175;SDS011;52977;44.816;20.538;2023-11-19T11:50:09;9.88;;;4.10;;
66175;SDS011;52977;44.816;20.538;2023-11-19T11:55:32;6.93;;;3.15;;
66175;SDS011;52977;44.816;20.538;2023-11-19T11:58:05;8.45;;;4.10;;
66175;SDS011;52977;44.816;20.538;2023-11-19T12:00:31;7.25;;;3.50;;
66175;SDS011;52977;44.816;20.538;2023-11-19T12:02:59;7.07;;;3.50;;
66175;SDS011;52977;44.816;20.538;2023-11-19T12:05:26;8.77;;;3.95;;
66175;SDS011;52977;44.816;20.538;2023-11-19T12:10:24;9.43;;;4.57;;
66175;SDS011;52977;44.816;20.538;2023-11-19T12:12:53;8.02;;;4.25;;
66175;SDS011;52977;44.816;20.538;2023-11-19T12:15:19;10.43;;;3.97;;
66175;SDS011;52977;44.816;20.538;2023-11-19T12:17:50;9.02;;;4.38;;
66175;SDS011;52977;44.816;20.538;2023-11-19T12:20:17;8.20;;;3.28;;
66175;SDS011;52977;44.816;20.538;2023-11-19T12:22:45;11.43;;;4.50;;
66175;SDS011;52977;44.816;20.538;2023-11-19T12:25:12;8.20;;;3.83;;
66175;SDS011;52977;44.816;20.538;2023-11-19T12:27:49;8.65;;;4.28;;
66175;SDS011;52977;44.816;20.538;2023-11-19T12:30:17;10.13;;;4.60;;
66175;SDS011;52977;44.816;20.538;2023-11-19T12:32:48;9.43;;;4.20;;
66175;SDS011;52977;44.816;20.538;2023-11-19T12:35:15;9.15;;;4.20;;
66175;SDS011;52977;44.816;20.538;2023-11-19T12:37:51;12.02;;;4.70;;
66175;SDS011;52977;44.816;20.538;2023-11-19T12:40:19;13.85;;;4.47;;
66175;SDS011;52977;44.816;20.538;2023-11-19T12:45:17;7.68;;;3.95;;
66175;SDS011;52977;44.816;20.538;2023-11-19T12:47:46;9.43;;;3.90;;
66175;SDS011;52977;44.816;20.538;2023-11-19T12:50:13;12.57;;;4.50;;
66175;SDS011;52977;44.816;20.538;2023-11-19T12:52:40;9.18;;;3.95;;
66175;SDS011;52977;44.816;20.538;2023-11-19T12:58:05;8.32;;;4.00;;
66175;SDS011;52977;44.816;20.538;2023-11-19T13:00:31;9.40;;;4.85;;
66175;SDS011;52977;44.816;20.538;2023-11-19T13:02:57;9.07;;;4.30;;
66175;SDS011;52977;44.816;20.538;2023-11-19T13:10:26;9.43;;;4.47;;
66175;SDS011;52977;44.816;20.538;2023-11-19T13:13:03;10.55;;;4.57;;
66175;SDS011;52977;44.816;20.538;2023-11-19T13:15:32;13.43;;;5.03;;
66175;SDS011;52977;44.816;20.538;2023-11-19T13:17:59;12.25;;;4.03;;
66175;SDS011;52977;44.816;20.538;2023-11-19T13:20:26;13.25;;;5.07;;
66175;SDS011;52977;44.816;20.538;2023-11-19T13:22:57;12.48;;;5.13;;
66175;SDS011;52977;44.816;20.538;2023-11-19T13:25:27;10.65;;;4.63;;
66175;SDS011;52977;44.816;20.538;2023-11-19T13:27:55;9.20;;;4.55;;
66175;SDS011;52977;44.816;20.538;2023-11-19T13:30:22;8.00;;;3.78;;
66175;SDS011;52977;44.816;20.538;2023-11-19T13:32:49;14.23;;;7.70;;
66175;SDS011;52977;44.816;20.538;2023-11-19T13:35:17;15.88;;;6.70;;
66175;SDS011;52977;44.816;20.538;2023-11-19T13:37:44;16.02;;;8.85;;
66175;SDS011;52977;44.816;20.538;2023-11-19T13:40:11;12.45;;;5.65;;
66175;SDS011;52977;44.816;20.538;2023-11-19T13:42:57;9.45;;;4.50;;
66175;SDS011;52977;44.816;20.538;2023-11-19T13:45:23;13.05;;;5.75;;
66175;SDS011;52977;44.816;20.538;2023-11-19T13:47:50;11.07;;;5.05;;
66175;SDS011;52977;44.816;20.538;2023-11-19T13:50:16;12.55;;;5.55;;
66175;SDS011;52977;44.816;20.538;2023-11-19T13:52:43;12.52;;;5.93;;
66175;SDS011;52977;44.816;20.538;2023-11-19T13:55:13;15.38;;;6.05;;
66175;SDS011;52977;44.816;20.538;2023-11-19T13:57:40;26.35;;;11.35;;
66175;SDS011;52977;44.816;20.538;2023-11-19T14:00:08;17.52;;;7.30;;
66175;SDS011;52977;44.816;20.538;2023-11-19T14:02:42;11.27;;;5.47;;
66175;SDS011;52977;44.816;20.538;2023-11-19T14:05:09;11.93;;;4.63;;
66175;SDS011;52977;44.816;20.538;2023-11-19T14:07:36;16.50;;;6.07;;
66175;SDS011;52977;44.816;20.538;2023-11-19T14:10:03;12.85;;;6.00;;
66175;SDS011;52977;44.816;20.538;2023-11-19T14:12:32;11.88;;;5.07;;
66175;SDS011;52977;44.816;20.538;2023-11-19T14:14:58;13.13;;;5.68;;
66175;SDS011;52977;44.816;20.538;2023-11-19T14:17:26;11.75;;;4.90;;
66175;SDS011;52977;44.816;20.538;2023-11-19T14:19:52;12.38;;;4.45;;
66175;SDS011;52977;44.816;20.538;2023-11-19T14:22:18;10.05;;;4.75;;
66175;SDS011;52977;44.816;20.538;2023-11-19T14:24:45;10.07;;;4.47;;
66175;SDS011;52977;44.816;20.538;2023-11-19T14:27:11;12.45;;;5.45;;
66175;SDS011;52977;44.816;20.538;2023-11-19T14:29:37;12.27;;;5.25;;
66175;SDS011;52977;44.816;20.538;2023-11-19T14:32:04;12.18;;;4.63;;
66175;SDS011;52977;44.816;20.538;2023-11-19T14:34:30;17.02;;;7.43;;
66175;SDS011;52977;44.816;20.538;2023-11-19T14:36:58;17.10;;;7.30;;
66175;SDS011;52977;44.816;20.538;2023-11-19T14:39:24;17.60;;;7.57;;
66175;SDS011;52977;44.816;20.538;2023-11-19T14:41:52;22.88;;;7.82;;
66175;SDS011;52977;44.816;20.538;2023-11-19T14:44:23;24.05;;;7.95;;
66175;SDS011;52977;44.816;20.538;2023-11-19T14:46:50;17.67;;;7.78;;
66175;SDS011;52977;44.816;20.538;2023-11-19T14:49:15;18.75;;;8.18;;
66175;SDS011;52977;44.816;20.538;2023-11-19T14:51:41;18.05;;;7.50;;
66175;SDS011;52977;44.816;20.538;2023-11-19T14:54:08;14.75;;;7.68;;
66175;SDS011;52977;44.816;20.538;2023-11-19T14:56:34;19.83;;;8.63;;
66175;SDS011;52977;44.816;20.538;2023-11-19T14:59:00;17.90;;;8.48;;
66175;SDS011;52977;44.816;20.538;2023-11-19T15:01:27;18.95;;;8.35;;
66175;SDS011;52977;44.816;20.538;2023-11-19T15:03:54;14.75;;;7.25;;